Terminal Aerodrome Forecast
Issued by NWS Pocatello, ID

Home | Current Version | Previous Version | Text Only | Print | Product List | Glossary On
Versions: 1 2 3 4 5 6 7 8 9 10 11 12 13 14 15 16 17 18 19 20 21 22 23 24 25 26 27 28 29 30
000
FTUS45 KPIH 242000 AAA
TAFPIH
TAF AMD
KPIH 242023Z 2420/2518 22010KT P6SM VCSH SCT030 BKN060
     FM250200 22010KT P6SM VCSH BKN050 OVC070
     FM250900 20008KT P6SM -SHRA SCT020 OVC035=

USA.gov is the U.S. government's official web portal to all federal, state and local government web resources and services.